createdAt,value
2018-12-12T00:00:16.201Z,4.17
2018-12-12T00:02:46.839Z,5.12
2018-12-12T00:05:17.488Z,5.20
2018-12-12T00:07:46.335Z,5.28
2018-12-12T00:10:20.147Z,4.87
2018-12-12T00:12:49.973Z,3.50
2018-12-12T00:15:19.465Z,4.67
2018-12-12T00:17:49.154Z,5.10
2018-12-12T00:20:17.967Z,5.55
2018-12-12T00:22:46.679Z,4.92
2018-12-12T00:25:16.640Z,4.60
2018-12-12T00:27:45.585Z,5.25
2018-12-12T00:30:14.242Z,5.78
2018-12-12T00:32:42.981Z,4.40
2018-12-12T00:35:11.752Z,4.50
2018-12-12T00:37:40.477Z,4.72
2018-12-12T00:40:09.287Z,5.22
2018-12-12T00:42:38.154Z,5.42
2018-12-12T00:45:06.948Z,6.33
2018-12-12T00:47:35.735Z,7.40
2018-12-12T00:50:04.986Z,5.83
2018-12-12T00:52:33.769Z,4.58
2018-12-12T00:55:02.518Z,4.70
2018-12-12T00:57:31.575Z,4.90
2018-12-12T01:00:00.286Z,6.20
2018-12-12T01:02:29.075Z,3.92
2018-12-12T01:04:57.959Z,4.45
2018-12-12T01:07:26.634Z,4.67
2018-12-12T01:09:55.382Z,4.60
2018-12-12T01:12:24.235Z,5.20
2018-12-12T01:14:53.026Z,6.95
2018-12-12T01:17:21.746Z,4.55
2018-12-12T01:19:50.439Z,4.67
2018-12-12T01:22:19.147Z,5.83
2018-12-12T01:24:47.853Z,5.47
2018-12-12T01:27:16.848Z,4.58
2018-12-12T01:29:45.735Z,4.87
2018-12-12T01:32:14.726Z,5.37
2018-12-12T01:34:43.521Z,5.35
2018-12-12T01:37:12.351Z,5.20
2018-12-12T01:39:41.318Z,5.22
2018-12-12T01:42:10.108Z,6.37
2018-12-12T01:44:38.871Z,5.00
2018-12-12T01:47:07.582Z,4.72
2018-12-12T01:49:36.344Z,5.90
2018-12-12T01:52:05.073Z,6.28
2018-12-12T01:54:33.818Z,6.75
2018-12-12T01:57:02.628Z,5.00
2018-12-12T01:59:31.403Z,5.30
2018-12-12T02:02:00.178Z,5.80
2018-12-12T02:04:28.828Z,6.05
2018-12-12T02:06:57.516Z,5.28
2018-12-12T02:09:26.281Z,5.33
2018-12-12T02:11:55.019Z,4.97
2018-12-12T02:14:23.764Z,6.75
2018-12-12T02:16:52.697Z,4.80
2018-12-12T02:19:21.372Z,5.00
2018-12-12T02:21:50.161Z,6.25
2018-12-12T02:24:18.910Z,5.40
2018-12-12T02:26:47.745Z,4.00
2018-12-12T02:29:16.425Z,5.58
2018-12-12T02:31:45.246Z,5.53
2018-12-12T02:34:14.007Z,4.67
2018-12-12T02:36:42.715Z,4.50
2018-12-12T02:39:12.044Z,4.05
2018-12-12T02:41:40.801Z,3.58
2018-12-12T02:44:10.316Z,4.22
2018-12-12T02:46:39.022Z,5.30
2018-12-12T02:49:08.448Z,3.40
2018-12-12T02:51:37.212Z,3.30
2018-12-12T02:54:05.988Z,4.05
2018-12-12T02:56:36.476Z,4.95
2018-12-12T02:59:05.364Z,3.72
2018-12-12T03:01:34.120Z,3.52
2018-12-12T03:04:03.008Z,3.40
2018-12-12T03:06:31.749Z,3.33
2018-12-12T03:09:00.447Z,3.72
2018-12-12T03:11:29.403Z,4.35
2018-12-12T03:13:58.125Z,2.98
2018-12-12T03:16:26.905Z,4.00
2018-12-12T03:18:55.596Z,5.10
2018-12-12T03:21:24.298Z,13.03
2018-12-12T03:23:53.039Z,4.03
2018-12-12T03:26:21.726Z,4.12
2018-12-12T03:28:50.415Z,3.52
2018-12-12T03:31:19.118Z,4.75
2018-12-12T03:33:47.836Z,3.85
2018-12-12T03:36:16.615Z,5.25
2018-12-12T03:38:45.317Z,4.37
2018-12-12T03:41:14.077Z,3.95
2018-12-12T03:43:42.773Z,2.83
2018-12-12T03:46:11.479Z,4.00
2018-12-12T03:48:40.187Z,5.40
2018-12-12T03:51:08.898Z,5.03
2018-12-12T03:53:37.606Z,3.12
2018-12-12T03:56:06.302Z,3.35
2018-12-12T03:58:35.037Z,3.47
2018-12-12T04:01:03.794Z,4.22
2018-12-12T04:03:32.564Z,4.85
2018-12-12T04:06:01.351Z,4.58
2018-12-12T04:08:30.087Z,3.37
2018-12-12T04:10:58.792Z,5.05
2018-12-12T04:13:27.491Z,4.67
2018-12-12T04:15:56.317Z,3.58
2018-12-12T04:18:25.114Z,5.58
2018-12-12T04:20:53.817Z,3.80
2018-12-12T04:23:23.467Z,4.33
2018-12-12T04:25:52.314Z,4.30
2018-12-12T04:28:20.977Z,3.62
2018-12-12T04:30:49.691Z,4.75
2018-12-12T04:33:18.398Z,3.72
2018-12-12T04:35:47.108Z,3.55
2018-12-12T04:38:15.893Z,3.58
2018-12-12T04:40:44.731Z,3.10
2018-12-12T04:43:13.461Z,4.00
2018-12-12T04:45:42.288Z,2.67
2018-12-12T04:48:11.026Z,4.03
2018-12-12T04:50:39.784Z,3.33
2018-12-12T04:53:08.535Z,4.47
2018-12-12T04:55:37.340Z,2.95
2018-12-12T04:58:06.063Z,3.45
2018-12-12T05:00:34.781Z,3.62
2018-12-12T05:03:03.839Z,2.08
2018-12-12T05:05:34.281Z,2.50
2018-12-12T05:08:03.242Z,3.33
2018-12-12T05:10:31.942Z,3.22
2018-12-12T05:13:00.733Z,1.90
2018-12-12T05:15:29.513Z,2.10
2018-12-12T05:17:58.209Z,3.22
2018-12-12T05:20:26.920Z,3.33
2018-12-12T05:22:55.623Z,2.25
2018-12-12T05:25:26.019Z,2.50
2018-12-12T05:27:55.348Z,2.72
2018-12-12T05:30:24.169Z,2.83
2018-12-12T05:32:52.911Z,3.10
2018-12-12T05:35:21.642Z,2.65
2018-12-12T05:37:52.315Z,2.37
2018-12-12T05:40:21.475Z,2.90
2018-12-12T05:42:50.233Z,2.77
2018-12-12T05:45:19.558Z,2.67
2018-12-12T05:47:48.273Z,3.15
2018-12-12T05:50:17.035Z,2.10
2018-12-12T05:52:45.939Z,2.62
2018-12-12T05:55:14.956Z,2.58
2018-12-12T05:57:43.728Z,2.42
2018-12-12T06:00:13.840Z,3.45
2018-12-12T06:02:42.699Z,2.42
2018-12-12T06:05:11.634Z,3.20
2018-12-12T06:07:40.391Z,2.92
2018-12-12T06:10:09.408Z,2.60
2018-12-12T06:12:38.219Z,2.40
2018-12-12T06:15:07.875Z,3.55
2018-12-12T06:17:36.764Z,2.33
2018-12-12T06:20:07.174Z,2.60
2018-12-12T06:22:37.831Z,3.50
2018-12-12T06:25:06.846Z,2.37
2018-12-12T06:27:36.526Z,3.35
2018-12-12T06:30:05.805Z,3.17
2018-12-12T06:32:35.704Z,2.92
2018-12-12T06:35:05.110Z,2.20
2018-12-12T06:37:34.030Z,2.15
2018-12-12T06:40:02.749Z,2.85
2018-12-12T06:42:32.576Z,3.02
2018-12-12T06:45:01.358Z,2.80
2018-12-12T06:47:30.125Z,2.22
2018-12-12T06:49:58.844Z,2.25
2018-12-12T06:52:27.541Z,2.62
2018-12-12T06:54:56.260Z,2.00
2018-12-12T06:57:25.406Z,2.60
2018-12-12T06:59:54.137Z,2.75
2018-12-12T07:02:22.869Z,2.55
2018-12-12T07:04:51.569Z,2.80
2018-12-12T07:07:20.683Z,2.55
2018-12-12T07:09:50.788Z,1.80
2018-12-12T07:12:19.478Z,1.90
2018-12-12T07:14:48.198Z,2.62
2018-12-12T07:17:16.898Z,2.17
2018-12-12T07:19:45.625Z,2.20
2018-12-12T07:22:14.457Z,2.35
2018-12-12T07:24:43.107Z,2.20
2018-12-12T07:27:13.045Z,2.45
2018-12-12T07:29:41.704Z,2.40
2018-12-12T07:32:10.468Z,2.55
2018-12-12T07:34:39.172Z,2.67
2018-12-12T07:37:08.108Z,3.60
2018-12-12T07:39:37.764Z,1.95
2018-12-12T07:42:06.499Z,2.70
2018-12-12T07:44:40.797Z,2.30
2018-12-12T07:47:14.491Z,2.08
2018-12-12T07:49:45.297Z,2.35
2018-12-12T07:52:30.935Z,2.72
2018-12-12T07:54:59.615Z,1.77
2018-12-12T07:57:28.408Z,1.82
2018-12-12T07:59:57.112Z,1.52
2018-12-12T08:02:25.887Z,1.42
2018-12-12T08:04:54.677Z,2.87
2018-12-12T08:07:24.480Z,1.90
2018-12-12T08:09:53.139Z,3.55
2018-12-12T08:12:21.878Z,3.08
2018-12-12T08:14:50.576Z,1.65
2018-12-12T08:17:19.399Z,2.67
2018-12-12T08:19:48.127Z,2.05
2018-12-12T08:22:16.837Z,2.12
2018-12-12T08:24:45.623Z,2.33
2018-12-12T08:27:14.578Z,1.62
2018-12-12T08:29:43.263Z,1.72
2018-12-12T08:32:11.676Z,2.00
2018-12-12T08:34:40.517Z,3.08
2018-12-12T08:37:09.335Z,1.85
2018-12-12T08:39:38.104Z,2.22
2018-12-12T08:42:06.892Z,1.82
2018-12-12T08:44:35.546Z,1.87
2018-12-12T08:47:04.389Z,2.22
2018-12-12T08:49:34.111Z,1.95
2018-12-12T08:52:02.889Z,2.27
2018-12-12T08:54:31.661Z,2.22
2018-12-12T08:57:01.101Z,2.60
2018-12-12T08:59:29.880Z,1.57
2018-12-12T09:01:58.651Z,2.90
2018-12-12T09:04:27.345Z,2.30
2018-12-12T09:06:56.107Z,1.75
2018-12-12T09:09:24.989Z,1.42
2018-12-12T09:11:53.747Z,1.52
2018-12-12T09:14:22.477Z,1.40
2018-12-12T09:16:52.594Z,1.77
2018-12-12T09:19:21.471Z,2.00
2018-12-12T09:21:50.183Z,1.55
2018-12-12T09:24:18.906Z,2.45
2018-12-12T09:26:48.373Z,1.75
2018-12-12T09:29:17.159Z,1.75
2018-12-12T09:31:47.809Z,3.35
2018-12-12T09:34:18.496Z,1.90
2018-12-12T09:36:49.199Z,1.67
2018-12-12T09:39:17.906Z,2.50
2018-12-12T09:41:46.609Z,1.95
2018-12-12T09:44:16.685Z,2.10
2018-12-12T09:46:45.423Z,2.35
2018-12-12T09:49:14.171Z,2.85
2018-12-12T09:51:44.824Z,2.70
2018-12-12T09:54:15.461Z,1.57
2018-12-12T09:56:44.238Z,2.27
2018-12-12T09:59:12.953Z,2.12
2018-12-12T10:01:44.091Z,2.00
2018-12-12T10:04:12.920Z,2.27
2018-12-12T10:06:41.708Z,1.42
2018-12-12T10:09:10.533Z,1.42
2018-12-12T10:11:39.281Z,1.47
2018-12-12T10:14:08.111Z,1.25
2018-12-12T10:16:36.967Z,1.72
2018-12-12T10:19:05.692Z,1.77
2018-12-12T10:21:34.462Z,1.90
2018-12-12T10:24:03.668Z,1.82
2018-12-12T10:26:32.766Z,2.25
2018-12-12T10:29:01.532Z,1.77
2018-12-12T10:31:30.546Z,2.40
2018-12-12T10:34:00.046Z,1.75
2018-12-12T10:36:28.775Z,1.62
2018-12-12T10:38:57.475Z,1.40
2018-12-12T10:41:26.206Z,1.62
2018-12-12T10:43:55.063Z,1.65
2018-12-12T10:46:23.819Z,1.75
2018-12-12T10:48:52.567Z,1.35
2018-12-12T10:51:21.355Z,1.70
2018-12-12T10:53:50.862Z,1.77
2018-12-12T10:56:19.681Z,2.40
2018-12-12T10:58:48.391Z,1.70
2018-12-12T11:01:22.533Z,2.08
2018-12-12T11:03:51.543Z,1.27
2018-12-12T11:06:20.248Z,2.08
2018-12-12T11:08:48.982Z,1.17
2018-12-12T11:11:17.750Z,1.77
2018-12-12T11:13:46.617Z,1.47
2018-12-12T11:16:15.394Z,3.25
2018-12-12T11:18:44.107Z,1.95
2018-12-12T11:21:12.881Z,1.80
2018-12-12T11:23:41.673Z,1.20
2018-12-12T11:26:10.981Z,1.50
2018-12-12T11:28:39.681Z,1.40
2018-12-12T11:31:08.395Z,2.30
2018-12-12T11:33:37.194Z,1.55
2018-12-12T11:36:06.008Z,1.32
2018-12-12T11:38:34.699Z,1.95
2018-12-12T11:41:03.541Z,1.30
2018-12-12T11:43:32.345Z,1.55
2018-12-12T11:46:01.068Z,1.47
2018-12-12T11:48:29.931Z,1.60
2018-12-12T11:50:59.663Z,1.37
2018-12-12T11:53:28.489Z,2.20
2018-12-12T11:55:57.923Z,1.90
2018-12-12T11:58:26.748Z,1.92
2018-12-12T12:00:55.445Z,1.70
2018-12-12T12:03:24.285Z,2.25
2018-12-12T12:05:52.953Z,2.50
2018-12-12T12:08:21.657Z,1.45
2018-12-12T12:10:50.403Z,2.22
2018-12-12T12:13:21.378Z,1.40
2018-12-12T12:15:50.167Z,2.15
2018-12-12T12:18:18.869Z,1.70
2018-12-12T12:20:47.636Z,1.67
2018-12-12T12:23:16.536Z,1.72
2018-12-12T12:25:46.610Z,2.27
2018-12-12T12:28:15.538Z,1.70
2018-12-12T12:30:44.406Z,2.30
2018-12-12T12:33:13.162Z,1.35
2018-12-12T12:35:42.003Z,2.55
2018-12-12T12:38:10.842Z,2.33
2018-12-12T12:40:39.679Z,2.00
2018-12-12T12:43:08.484Z,1.80
2018-12-12T12:45:37.229Z,1.50
2018-12-12T12:48:06.151Z,1.80
2018-12-12T12:50:35.039Z,1.85
2018-12-12T12:53:03.974Z,1.52
2018-12-12T12:55:32.736Z,1.80
2018-12-12T12:58:01.466Z,1.30
2018-12-12T13:00:31.310Z,1.30
2018-12-12T13:03:00.024Z,1.35
2018-12-12T13:05:28.727Z,2.27
2018-12-12T13:07:57.456Z,1.65
2018-12-12T13:10:26.619Z,1.10
2018-12-12T13:12:55.713Z,1.55
2018-12-12T13:15:24.716Z,2.25
2018-12-12T13:17:53.532Z,1.10
2018-12-12T13:20:22.461Z,1.67
2018-12-12T13:22:51.230Z,2.08
2018-12-12T13:25:19.965Z,1.82
2018-12-12T13:27:48.669Z,2.35
2018-12-12T13:30:17.433Z,2.20
2018-12-12T13:32:46.138Z,2.00
2018-12-12T13:35:15.085Z,1.17
2018-12-12T13:37:44.093Z,1.20
2018-12-12T13:40:12.881Z,2.20
2018-12-12T13:42:43.149Z,1.20
2018-12-12T13:45:12.873Z,1.50
2018-12-12T13:47:41.662Z,1.20
2018-12-12T13:50:12.949Z,2.10
2018-12-12T13:52:41.736Z,2.75
2018-12-12T13:55:10.583Z,1.60
2018-12-12T13:57:41.109Z,1.30
2018-12-12T14:00:11.016Z,2.00
2018-12-12T14:02:41.141Z,1.60
2018-12-12T14:05:09.983Z,1.85
2018-12-12T14:07:40.742Z,1.42
2018-12-12T14:10:09.528Z,1.30
2018-12-12T14:12:38.295Z,1.57
2018-12-12T14:15:07.227Z,1.47
2018-12-12T14:17:36.119Z,2.00
2018-12-12T14:20:05.302Z,1.40
2018-12-12T14:22:34.213Z,1.55
2018-12-12T14:25:03.779Z,1.35
2018-12-12T14:27:38.745Z,1.80
2018-12-12T14:30:03.303Z,1.60
2018-12-12T14:32:31.996Z,1.92
2018-12-12T14:35:00.737Z,1.35
2018-12-12T14:37:29.499Z,2.70
2018-12-12T14:39:58.382Z,1.42
2018-12-12T14:42:27.077Z,1.50
2018-12-12T14:44:55.893Z,1.40
2018-12-12T14:47:24.597Z,1.40
2018-12-12T14:49:53.347Z,1.35
2018-12-12T14:52:22.122Z,1.40
2018-12-12T14:54:50.827Z,1.62
2018-12-12T14:57:19.588Z,1.80
2018-12-12T14:59:48.375Z,1.10
2018-12-12T15:02:17.042Z,1.50
2018-12-12T15:04:45.809Z,1.17
2018-12-12T15:07:14.596Z,1.52
2018-12-12T15:09:43.374Z,1.45
2018-12-12T15:12:12.134Z,1.55
2018-12-12T15:14:40.963Z,1.10
2018-12-12T15:17:09.814Z,1.30
2018-12-12T15:19:38.546Z,1.20
2018-12-12T15:22:07.634Z,1.67
2018-12-12T15:24:37.511Z,1.10
2018-12-12T15:27:06.267Z,1.98
2018-12-12T15:29:34.925Z,1.50
2018-12-12T15:32:04.249Z,1.22
2018-12-12T15:34:32.916Z,1.05
2018-12-12T15:37:01.621Z,1.45
2018-12-12T15:39:30.480Z,1.45
2018-12-12T15:41:59.198Z,1.70
2018-12-12T15:44:28.297Z,1.17
2018-12-12T15:46:57.242Z,1.92
2018-12-12T15:49:26.098Z,1.52
2018-12-12T15:51:54.932Z,1.52
2018-12-12T15:54:23.756Z,1.25
2018-12-12T15:56:52.475Z,1.30
2018-12-12T15:59:21.274Z,1.50
2018-12-12T16:01:49.984Z,1.77
2018-12-12T16:04:19.369Z,1.35
2018-12-12T16:06:48.151Z,1.40
2018-12-12T16:09:16.888Z,1.65
2018-12-12T16:11:45.612Z,1.57
2018-12-12T16:14:17.428Z,1.15
2018-12-12T16:16:46.427Z,1.20
2018-12-12T16:19:15.242Z,1.30
2018-12-12T16:21:44.024Z,1.10
2018-12-12T16:24:12.764Z,1.57
2018-12-12T16:26:42.011Z,1.50
2018-12-12T16:29:10.717Z,1.37
2018-12-12T16:31:39.454Z,2.05
2018-12-12T16:34:08.169Z,1.30
2018-12-12T16:36:36.953Z,1.30
2018-12-12T16:39:07.545Z,1.75
2018-12-12T16:41:37.423Z,1.77
2018-12-12T16:44:06.168Z,0.90
2018-12-12T16:46:51.807Z,1.35
2018-12-12T16:49:20.605Z,1.42
2018-12-12T16:51:49.414Z,1.82
2018-12-12T16:54:18.201Z,1.05
2018-12-12T16:56:47.025Z,1.72
2018-12-12T16:59:15.792Z,1.20
2018-12-12T17:01:45.412Z,1.27
2018-12-12T17:04:14.275Z,1.70
2018-12-12T17:06:42.944Z,1.20
2018-12-12T17:09:11.709Z,2.42
2018-12-12T17:11:40.566Z,1.20
2018-12-12T17:14:09.413Z,1.50
2018-12-12T17:16:38.193Z,1.50
2018-12-12T17:19:07.027Z,2.55
2018-12-12T17:21:35.745Z,4.47
2018-12-12T17:24:05.262Z,12.47
2018-12-12T17:26:34.945Z,12.18
2018-12-12T17:29:03.723Z,14.50
2018-12-12T17:31:32.502Z,9.95
2018-12-12T17:34:01.332Z,10.78
2018-12-12T17:36:30.159Z,12.50
2018-12-12T17:38:59.018Z,8.88
2018-12-12T17:41:27.734Z,8.53
2018-12-12T17:43:58.603Z,7.90
2018-12-12T17:46:27.326Z,8.55
2018-12-12T17:48:56.174Z,9.55
2018-12-12T17:51:24.932Z,8.65
2018-12-12T17:53:53.750Z,7.55
2018-12-12T17:56:22.501Z,9.20
2018-12-12T17:58:52.450Z,10.13
2018-12-12T18:01:25.554Z,8.68
2018-12-12T18:03:58.128Z,7.60
2018-12-12T18:06:41.644Z,6.50
2018-12-12T18:09:12.606Z,7.15
2018-12-12T18:11:41.449Z,6.05
2018-12-12T18:14:10.199Z,7.20
2018-12-12T18:16:41.106Z,5.80
2018-12-12T18:19:10.356Z,7.87
2018-12-12T18:21:39.145Z,8.03
2018-12-12T18:24:09.930Z,6.42
2018-12-12T18:26:38.743Z,5.00
2018-12-12T18:29:07.549Z,5.85
2018-12-12T18:31:36.564Z,5.25
2018-12-12T18:34:10.821Z,7.17
2018-12-12T18:36:39.699Z,5.35
2018-12-12T18:39:08.531Z,5.15
2018-12-12T18:41:37.216Z,4.60
2018-12-12T18:44:07.966Z,4.65
2018-12-12T18:46:36.831Z,5.60
2018-12-12T18:49:05.655Z,6.22
2018-12-12T18:51:36.375Z,6.37
2018-12-12T18:54:05.239Z,6.80
2018-12-12T18:56:36.001Z,8.58
2018-12-12T18:59:04.794Z,6.20
2018-12-12T19:01:33.840Z,5.37
2018-12-12T19:04:03.349Z,5.55
2018-12-12T19:06:32.051Z,6.95
2018-12-12T19:09:00.904Z,6.55
2018-12-12T19:11:30.941Z,5.30
2018-12-12T19:13:59.668Z,5.05
2018-12-12T19:16:28.357Z,5.20
2018-12-12T19:18:57.225Z,5.70
2018-12-12T19:21:26.014Z,3.60
2018-12-12T19:23:54.714Z,3.45
2018-12-12T19:26:23.515Z,5.00
2018-12-12T19:28:52.209Z,3.45
2018-12-12T19:31:20.975Z,5.25
2018-12-12T19:33:49.743Z,3.62
2018-12-12T19:36:18.506Z,6.55
2018-12-12T19:38:47.333Z,4.53
2018-12-12T19:41:16.081Z,3.67
2018-12-12T19:43:44.827Z,3.08
2018-12-12T19:46:13.597Z,3.27
2018-12-12T19:48:42.560Z,3.90
2018-12-12T19:51:11.308Z,3.40
2018-12-12T19:53:40.112Z,3.10
2018-12-12T19:56:08.948Z,3.30
2018-12-12T19:58:37.645Z,3.10
2018-12-12T20:01:06.403Z,3.30
2018-12-12T20:03:35.181Z,4.25
2018-12-12T20:06:04.021Z,3.80
2018-12-12T20:08:32.827Z,2.80
2018-12-12T20:11:01.609Z,3.80
2018-12-12T20:13:30.461Z,5.10
2018-12-12T20:16:00.274Z,2.20
2018-12-12T20:18:29.681Z,2.17
2018-12-12T20:20:58.509Z,3.00
2018-12-12T20:23:27.271Z,2.40
2018-12-12T20:25:56.043Z,4.55
2018-12-12T20:28:24.709Z,2.80
2018-12-12T20:30:53.408Z,3.25
2018-12-12T20:33:22.179Z,2.83
2018-12-12T20:35:50.951Z,2.58
2018-12-12T20:38:19.661Z,2.22
2018-12-12T20:40:48.386Z,3.72
2018-12-12T20:43:17.118Z,2.85
2018-12-12T20:45:45.858Z,2.70
2018-12-12T20:48:14.565Z,2.25
2018-12-12T20:50:43.329Z,2.10
2018-12-12T20:53:12.268Z,1.82
2018-12-12T20:55:40.977Z,2.58
2018-12-12T20:58:10.745Z,3.12
2018-12-12T21:00:39.589Z,1.80
2018-12-12T21:03:08.469Z,2.50
2018-12-12T21:05:37.233Z,3.20
2018-12-12T21:08:06.041Z,2.55
2018-12-12T21:10:34.907Z,2.98
2018-12-12T21:13:03.875Z,2.15
2018-12-12T21:15:32.571Z,3.10
2018-12-12T21:18:01.406Z,2.65
2018-12-12T21:20:31.102Z,2.25
2018-12-12T21:23:00.453Z,2.27
2018-12-12T21:25:31.146Z,2.50
2018-12-12T21:27:59.936Z,2.65
2018-12-12T21:30:28.721Z,2.67
2018-12-12T21:32:57.499Z,2.92
2018-12-12T21:35:26.305Z,2.27
2018-12-12T21:37:55.021Z,1.98
2018-12-12T21:40:23.775Z,3.33
2018-12-12T21:42:53.012Z,2.10
2018-12-12T21:45:22.617Z,2.47
2018-12-12T21:47:51.387Z,2.40
2018-12-12T21:50:20.814Z,2.95
2018-12-12T21:52:50.131Z,2.60
2018-12-12T21:55:18.824Z,2.80
2018-12-12T21:57:47.527Z,1.70
2018-12-12T22:00:16.371Z,2.22
2018-12-12T22:02:45.058Z,3.25
2018-12-12T22:05:14.503Z,1.95
2018-12-12T22:07:43.165Z,3.37
2018-12-12T22:10:11.980Z,3.02
2018-12-12T22:12:40.751Z,2.30
2018-12-12T22:15:09.503Z,2.55
2018-12-12T22:17:38.739Z,1.98
2018-12-12T22:20:08.886Z,3.05
2018-12-12T22:22:37.591Z,2.10
2018-12-12T22:25:06.484Z,3.37
2018-12-12T22:27:35.299Z,3.27
2018-12-12T22:30:04.734Z,2.65
2018-12-12T22:32:33.428Z,2.40
2018-12-12T22:35:02.136Z,2.22
2018-12-12T22:37:33.863Z,2.42
2018-12-12T22:40:02.560Z,3.15
2018-12-12T22:42:32.267Z,3.50
2018-12-12T22:45:01.031Z,2.50
2018-12-12T22:47:29.798Z,2.65
2018-12-12T22:49:58.525Z,2.65
2018-12-12T22:52:27.288Z,2.60
2018-12-12T22:54:56.092Z,1.72
2018-12-12T22:57:26.107Z,1.80
2018-12-12T22:59:54.745Z,2.65
2018-12-12T23:02:23.584Z,2.15
2018-12-12T23:04:52.229Z,3.37
2018-12-12T23:07:20.997Z,2.20
2018-12-12T23:09:49.783Z,3.45
2018-12-12T23:12:20.580Z,5.30
2018-12-12T23:14:49.264Z,2.87
2018-12-12T23:17:18.052Z,3.12
2018-12-12T23:19:46.743Z,1.70
2018-12-12T23:22:15.620Z,2.65
2018-12-12T23:24:44.299Z,3.20
2018-12-12T23:27:13.009Z,2.33
2018-12-12T23:29:41.971Z,2.37
2018-12-12T23:32:10.915Z,2.17
2018-12-12T23:34:39.625Z,2.67
2018-12-12T23:37:08.448Z,2.67
2018-12-12T23:39:38.157Z,1.95
2018-12-12T23:42:06.811Z,2.55
2018-12-12T23:44:35.512Z,2.95
2018-12-12T23:47:04.283Z,2.15
2018-12-12T23:49:33.009Z,1.87
2018-12-12T23:52:02.973Z,2.20
2018-12-12T23:54:31.695Z,2.30
2018-12-12T23:57:00.396Z,2.17
2018-12-12T23:59:29.174Z,2.05
